createdAt,value
2022-11-16T00:00:49.817Z,100067.00
2022-11-16T00:03:26.212Z,100062.00
2022-11-16T00:06:08.189Z,100057.20
2022-11-16T00:09:08.574Z,100052.00
2022-11-16T00:14:45.219Z,100037.00
2022-11-16T00:17:23.301Z,100029.60
2022-11-16T00:20:02.945Z,100023.60
2022-11-16T00:22:40.251Z,100016.20
2022-11-16T00:25:18.866Z,100015.20
2022-11-16T00:27:56.469Z,100015.40
2022-11-16T00:30:33.301Z,100024.40
2022-11-16T00:33:09.692Z,100015.00
2022-11-16T00:35:49.041Z,100009.00
2022-11-16T00:38:25.972Z,100003.80
2022-11-16T00:41:06.007Z,99999.00
2022-11-16T00:43:42.847Z,99997.00
2022-11-16T00:46:19.782Z,99989.40
2022-11-16T00:48:56.988Z,99992.00
2022-11-16T00:51:34.481Z,99989.20
2022-11-16T00:54:12.983Z,99987.00
2022-11-16T00:56:50.178Z,99982.40
2022-11-16T00:59:29.430Z,99985.60
2022-11-16T01:02:07.771Z,99980.20
2022-11-16T01:04:45.250Z,99980.20
2022-11-16T01:07:24.436Z,99980.00
2022-11-16T01:10:01.933Z,99980.40
2022-11-16T01:12:38.762Z,99977.20
2022-11-16T01:15:18.769Z,99978.00
2022-11-16T01:17:55.752Z,99975.80
2022-11-16T01:20:34.553Z,99970.60
2022-11-16T01:23:12.770Z,99968.80
2022-11-16T01:25:49.400Z,99964.00
2022-11-16T01:28:29.036Z,99960.40
2022-11-16T01:31:05.719Z,99949.20
2022-11-16T01:33:46.436Z,99943.20
2022-11-16T01:36:37.021Z,99945.20
2022-11-16T01:39:15.562Z,99942.00
2022-11-16T01:41:57.643Z,99940.20
2022-11-16T01:45:24.424Z,99932.00
2022-11-16T01:48:03.555Z,99932.40
2022-11-16T01:50:42.678Z,99930.20
2022-11-16T01:53:20.039Z,99924.40
2022-11-16T01:56:00.775Z,99917.00
2022-11-16T01:58:57.892Z,99911.00
2022-11-16T02:01:36.153Z,99908.40
2022-11-16T02:04:15.539Z,99907.20
2022-11-16T02:07:14.460Z,99901.60
2022-11-16T02:10:13.035Z,99903.20
2022-11-16T02:13:12.550Z,99898.60
2022-11-16T02:16:02.659Z,99892.80
2022-11-16T02:18:54.557Z,99883.80
2022-11-16T02:21:43.776Z,99882.40
2022-11-16T02:24:48.655Z,99878.40
2022-11-16T02:27:59.888Z,99876.40
2022-11-16T02:30:37.118Z,99871.00
2022-11-16T02:33:20.650Z,99865.60
2022-11-16T02:36:02.902Z,99863.00
2022-11-16T02:38:45.703Z,99852.80
2022-11-16T02:41:27.759Z,99849.60
2022-11-16T02:44:12.482Z,99843.80
2022-11-16T02:46:54.757Z,99837.60
2022-11-16T02:49:36.247Z,99830.40
2022-11-16T02:52:16.494Z,99829.00
2022-11-16T02:54:54.852Z,99826.60
2022-11-16T02:57:46.645Z,99817.40
2022-11-16T03:00:30.837Z,99815.00
2022-11-16T03:03:30.998Z,99813.20
2022-11-16T03:06:14.409Z,99811.20
2022-11-16T03:08:56.173Z,99810.20
2022-11-16T03:11:51.278Z,99805.20
2022-11-16T03:14:33.990Z,99803.40
2022-11-16T03:17:14.789Z,99804.00
2022-11-16T03:20:00.373Z,99800.80
2022-11-16T03:22:41.761Z,99804.20
2022-11-16T03:25:23.398Z,99796.20
2022-11-16T03:28:10.910Z,99793.60
2022-11-16T03:30:55.388Z,99789.60
2022-11-16T03:33:39.793Z,99784.80
2022-11-16T03:36:24.916Z,99779.60
2022-11-16T03:39:08.293Z,99777.80
2022-11-16T03:41:48.944Z,99777.00
2022-11-16T03:44:28.509Z,99773.20
2022-11-16T03:47:06.670Z,99770.00
2022-11-16T03:49:46.620Z,99768.00
2022-11-16T03:52:24.026Z,99763.60
2022-11-16T03:55:01.621Z,99759.00
2022-11-16T03:57:40.440Z,99755.40
2022-11-16T04:00:22.577Z,99758.60
2022-11-16T04:03:01.226Z,99756.60
2022-11-16T04:05:55.296Z,99758.40
2022-11-16T04:08:48.354Z,99756.80
2022-11-16T04:11:44.019Z,99756.80
2022-11-16T04:14:44.379Z,99758.00
2022-11-16T04:17:42.438Z,99760.20
2022-11-16T04:20:38.963Z,99753.00
2022-11-16T04:23:36.852Z,99756.80
2022-11-16T04:26:16.784Z,99758.20
2022-11-16T04:28:53.949Z,99757.20
2022-11-16T04:31:47.283Z,99751.00
2022-11-16T04:34:40.152Z,99750.80
2022-11-16T04:37:37.775Z,99751.00
2022-11-16T04:40:20.157Z,99748.60
2022-11-16T04:43:01.072Z,99744.20
2022-11-16T04:45:56.683Z,99739.40
2022-11-16T04:48:36.299Z,99730.00
2022-11-16T04:51:14.780Z,99721.20
2022-11-16T04:53:51.351Z,99710.00
2022-11-16T04:56:30.586Z,99707.80
2022-11-16T04:59:07.210Z,99703.60
2022-11-16T05:02:01.303Z,99700.20
2022-11-16T05:04:38.196Z,99702.60
2022-11-16T05:07:19.090Z,99703.80
2022-11-16T05:09:56.095Z,99703.40
2022-11-16T05:12:33.333Z,99694.20
2022-11-16T05:15:14.825Z,99691.60
2022-11-16T05:17:51.303Z,99686.60
2022-11-16T05:20:47.672Z,99684.60
2022-11-16T05:23:41.001Z,99682.00
2022-11-16T05:26:19.981Z,99681.80
2022-11-16T05:28:57.309Z,99686.00
2022-11-16T05:31:39.119Z,99682.00
2022-11-16T05:34:18.807Z,99683.80
2022-11-16T05:36:58.171Z,99688.60
2022-11-16T05:39:35.156Z,99692.00
2022-11-16T05:42:12.241Z,99691.00
2022-11-16T05:44:47.905Z,99692.60
2022-11-16T05:47:25.514Z,99692.40
2022-11-16T05:50:01.781Z,99698.60
2022-11-16T05:52:42.175Z,99703.20
2022-11-16T05:55:20.254Z,99705.60
2022-11-16T05:57:57.534Z,99701.80
2022-11-16T06:00:34.247Z,99698.40
2022-11-16T06:03:11.187Z,99691.20
2022-11-16T06:05:48.769Z,99695.00
2022-11-16T06:08:25.526Z,99705.00
2022-11-16T06:11:04.756Z,99698.20
2022-11-16T06:13:41.961Z,99693.40
2022-11-16T06:16:18.050Z,99691.80
2022-11-16T06:18:55.742Z,99694.00
2022-11-16T06:21:33.357Z,99696.80
2022-11-16T06:24:11.809Z,99692.20
2022-11-16T06:26:48.902Z,99680.20
2022-11-16T06:29:25.746Z,99676.40
2022-11-16T06:32:02.647Z,99665.00
2022-11-16T06:34:39.348Z,99667.00
2022-11-16T06:37:15.917Z,99665.80
2022-11-16T06:39:52.891Z,99664.20
2022-11-16T06:42:29.310Z,99669.00
2022-11-16T06:45:05.146Z,99665.20
2022-11-16T06:47:46.039Z,99656.80
2022-11-16T06:50:23.401Z,99653.80
2022-11-16T06:53:01.136Z,99644.20
2022-11-16T06:55:38.414Z,99644.20
2022-11-16T06:58:17.168Z,99646.40
2022-11-16T07:00:54.822Z,99642.80
2022-11-16T07:03:30.926Z,99642.60
2022-11-16T07:06:12.311Z,99634.20
2022-11-16T07:08:50.138Z,99634.00
2022-11-16T07:11:28.896Z,99629.80
2022-11-16T07:14:07.761Z,99621.00
2022-11-16T07:16:43.694Z,99605.60
2022-11-16T07:19:21.202Z,99594.00
2022-11-16T07:21:58.396Z,99604.60
2022-11-16T07:24:35.151Z,99606.60
2022-11-16T07:27:14.199Z,99607.20
2022-11-16T07:29:53.510Z,99600.00
2022-11-16T07:32:51.879Z,99598.20
2022-11-16T07:35:34.429Z,99593.80
2022-11-16T07:38:15.430Z,99588.40
2022-11-16T07:40:54.105Z,99581.80
2022-11-16T07:43:35.080Z,99574.00
2022-11-16T07:46:51.436Z,99557.00
2022-11-16T07:49:22.098Z,99549.80
2022-11-16T07:52:03.588Z,99547.00
2022-11-16T07:54:44.939Z,99554.20
2022-11-16T07:57:23.588Z,99547.80
2022-11-16T08:00:01.831Z,99548.20
2022-11-16T08:02:49.973Z,99563.80
2022-11-16T08:05:29.067Z,99564.00
2022-11-16T08:08:05.472Z,99578.20
2022-11-16T08:10:44.139Z,99584.80
2022-11-16T08:13:20.784Z,99579.20
2022-11-16T08:15:57.609Z,99570.60
2022-11-16T08:18:33.435Z,99566.60
2022-11-16T08:21:11.805Z,99566.40
2022-11-16T08:23:50.653Z,99569.80
2022-11-16T08:26:31.108Z,99579.60
2022-11-16T08:29:13.308Z,99586.40
2022-11-16T08:31:50.726Z,99591.40
2022-11-16T08:34:28.774Z,99603.60
2022-11-16T08:37:07.609Z,99603.80
2022-11-16T08:39:48.730Z,99604.80
2022-11-16T08:42:25.800Z,99601.40
2022-11-16T08:45:02.903Z,99591.80
2022-11-16T08:47:39.290Z,99600.00
2022-11-16T08:50:21.219Z,99604.80
2022-11-16T08:52:58.642Z,99610.00
2022-11-16T08:55:36.646Z,99604.40
2022-11-16T08:58:13.832Z,99606.00
2022-11-16T09:00:50.194Z,99608.20
2022-11-16T09:03:27.407Z,99606.00
2022-11-16T09:06:03.751Z,99601.80
2022-11-16T09:08:42.685Z,99599.40
2022-11-16T09:11:20.965Z,99597.20
2022-11-16T09:13:59.250Z,99593.00
2022-11-16T09:16:35.790Z,99586.40
2022-11-16T09:19:11.470Z,99584.80
2022-11-16T09:21:48.798Z,99591.80
2022-11-16T09:24:25.117Z,99596.20
2022-11-16T09:27:01.414Z,99595.00
2022-11-16T09:29:37.852Z,99595.60
2022-11-16T09:32:14.513Z,99597.60
2022-11-16T09:34:50.457Z,99603.00
2022-11-16T09:37:26.773Z,99607.80
2022-11-16T09:40:02.497Z,99613.00
2022-11-16T09:42:54.903Z,99616.60
2022-11-16T09:45:42.208Z,99613.60
2022-11-16T09:48:22.401Z,99611.80
2022-11-16T09:50:59.991Z,99613.80
2022-11-16T09:53:42.462Z,99607.20
2022-11-16T09:56:25.342Z,99603.20
2022-11-16T09:59:09.395Z,99602.80
2022-11-16T10:01:54.584Z,99596.80
2022-11-16T10:04:44.097Z,99586.40
2022-11-16T10:07:26.951Z,99580.80
2022-11-16T10:10:03.304Z,99566.60
2022-11-16T10:12:48.038Z,99556.80
2022-11-16T10:15:50.264Z,99549.60
2022-11-16T10:18:49.789Z,99526.80
2022-11-16T10:21:55.723Z,99500.00
2022-11-16T10:24:51.116Z,99487.20
2022-11-16T10:27:55.853Z,99484.80
2022-11-16T10:30:37.167Z,99481.80
2022-11-16T10:33:18.696Z,99483.80
2022-11-16T10:35:56.286Z,99488.80
2022-11-16T10:38:35.212Z,99479.00
2022-11-16T10:41:24.956Z,99470.80
2022-11-16T10:44:04.814Z,99470.40
2022-11-16T10:46:49.712Z,99464.20
2022-11-16T10:49:40.005Z,99456.80
2022-11-16T10:52:16.425Z,99452.20
2022-11-16T10:54:52.977Z,99449.60
2022-11-16T10:57:48.460Z,99450.20
2022-11-16T11:00:45.238Z,99443.40
2022-11-16T11:03:34.531Z,99441.40
2022-11-16T11:06:16.834Z,99435.80
2022-11-16T11:08:54.241Z,99431.60
2022-11-16T11:11:47.579Z,99426.00
2022-11-16T11:14:24.351Z,99431.40
2022-11-16T11:17:19.713Z,99432.60
2022-11-16T11:20:05.638Z,99431.20
2022-11-16T11:22:55.515Z,99435.20
2022-11-16T11:25:34.416Z,99433.00
2022-11-16T11:28:26.578Z,99427.80
2022-11-16T11:31:08.824Z,99416.40
2022-11-16T11:33:51.559Z,99409.60
2022-11-16T11:36:35.006Z,99404.20
2022-11-16T11:39:30.980Z,99400.00
2022-11-16T11:42:26.677Z,99398.60
2022-11-16T11:45:10.559Z,99389.80
2022-11-16T11:47:59.669Z,99391.80
2022-11-16T11:50:50.553Z,99382.60
2022-11-16T11:54:00.851Z,99378.00
2022-11-16T11:56:39.157Z,99374.20
2022-11-16T11:59:24.759Z,99378.40
2022-11-16T12:02:31.653Z,99380.40
2022-11-16T12:05:40.221Z,99380.40
2022-11-16T12:08:36.986Z,99381.40
2022-11-16T12:11:23.677Z,99386.00
2022-11-16T12:14:36.503Z,99381.40
2022-11-16T12:17:23.009Z,99375.20
2022-11-16T12:20:26.004Z,99371.60
2022-11-16T12:23:37.843Z,99368.40
2022-11-16T12:26:29.531Z,99367.20
2022-11-16T12:29:26.814Z,99367.00
2022-11-16T12:32:41.256Z,99360.20
2022-11-16T12:35:46.755Z,99359.00
2022-11-16T12:38:46.989Z,99351.40
2022-11-16T12:42:12.102Z,99348.40
2022-11-16T12:45:30.873Z,99339.40
2022-11-16T12:48:35.932Z,99340.00
2022-11-16T12:51:31.781Z,99335.40
2022-11-16T12:55:03.955Z,99334.40
2022-11-16T12:57:51.460Z,99332.80
2022-11-16T13:00:29.105Z,99329.00
2022-11-16T13:03:19.860Z,99325.80
2022-11-16T13:06:15.103Z,99324.40
2022-11-16T13:09:04.602Z,99316.40
2022-11-16T13:11:47.888Z,99312.60
2022-11-16T13:14:30.294Z,99301.60
2022-11-16T13:17:07.729Z,99302.60
2022-11-16T13:19:50.603Z,99308.20
2022-11-16T13:22:34.818Z,99300.80
2022-11-16T13:25:25.026Z,99293.80
2022-11-16T13:28:14.555Z,99292.40
2022-11-16T13:31:05.358Z,99293.80
2022-11-16T13:33:51.183Z,99295.80
2022-11-16T13:36:51.031Z,99292.40
2022-11-16T13:40:03.962Z,99285.00
2022-11-16T13:42:44.926Z,99285.20
2022-11-16T13:45:25.759Z,99286.20
2022-11-16T13:48:04.352Z,99284.80
2022-11-16T13:50:48.706Z,99281.40
2022-11-16T13:56:49.787Z,99277.00
2022-11-16T13:59:33.767Z,99278.60
2022-11-16T14:02:34.479Z,99279.40
2022-11-16T14:05:38.503Z,99280.40
2022-11-16T14:08:55.657Z,99277.60
2022-11-16T14:11:51.091Z,99275.20
2022-11-16T14:15:14.837Z,99273.00
2022-11-16T14:18:26.363Z,99285.40
2022-11-16T14:21:22.615Z,99289.00
2022-11-16T14:24:29.413Z,99295.20
2022-11-16T14:27:24.316Z,99293.00
2022-11-16T14:30:13.140Z,99288.40
2022-11-16T14:32:56.788Z,99282.80
2022-11-16T14:35:39.386Z,99283.00
2022-11-16T14:38:31.061Z,99283.40
2022-11-16T14:41:15.911Z,99276.40
2022-11-16T14:43:56.264Z,99268.20
2022-11-16T14:46:38.328Z,99268.20
2022-11-16T14:49:21.799Z,99270.40
2022-11-16T14:52:02.565Z,99271.80
2022-11-16T14:54:51.262Z,99266.80
2022-11-16T14:57:28.752Z,99268.40
2022-11-16T15:00:35.017Z,99269.80
2022-11-16T15:03:15.318Z,99270.00
2022-11-16T15:05:52.052Z,99271.80
2022-11-16T15:08:35.643Z,99273.00
2022-11-16T15:11:23.619Z,99272.80
2022-11-16T15:14:01.295Z,99269.60
2022-11-16T15:16:50.717Z,99267.40
2022-11-16T15:19:28.164Z,99258.60
2022-11-16T15:22:07.067Z,99261.20
2022-11-16T15:24:44.128Z,99266.00
2022-11-16T15:27:47.255Z,99267.60
2022-11-16T15:30:30.110Z,99268.40
2022-11-16T15:33:11.171Z,99269.60
2022-11-16T15:35:47.544Z,99260.00
2022-11-16T15:38:28.548Z,99256.80
2022-11-16T15:41:06.618Z,99258.80
2022-11-16T15:44:12.305Z,99268.20
2022-11-16T15:46:49.832Z,99264.80
2022-11-16T15:49:36.232Z,99266.80
2022-11-16T15:52:12.780Z,99266.60
2022-11-16T15:55:05.901Z,99272.60
2022-11-16T15:57:46.545Z,99272.60
2022-11-16T16:00:34.750Z,99275.40
2022-11-16T16:03:22.632Z,99281.20
2022-11-16T16:05:58.839Z,99287.80
2022-11-16T16:08:37.549Z,99285.40
2022-11-16T16:11:30.709Z,99281.60
2022-11-16T16:14:12.098Z,99280.40
2022-11-16T16:16:54.474Z,99281.80
2022-11-16T16:19:48.767Z,99282.40
2022-11-16T16:22:36.884Z,99281.80
2022-11-16T16:25:31.668Z,99283.00
2022-11-16T16:28:07.585Z,99283.40
2022-11-16T16:30:44.051Z,99293.40
2022-11-16T16:33:29.346Z,99289.40
2022-11-16T16:36:06.021Z,99289.40
2022-11-16T16:38:42.989Z,99293.60
2022-11-16T16:41:25.395Z,99293.60
2022-11-16T16:44:02.477Z,99297.60
2022-11-16T16:46:39.014Z,99308.80
2022-11-16T16:49:15.837Z,99308.40
2022-11-16T16:51:52.604Z,99300.00
2022-11-16T16:54:30.427Z,99312.80
2022-11-16T16:57:06.823Z,99315.20
2022-11-16T16:59:44.014Z,99312.80
2022-11-16T17:02:20.826Z,99321.60
2022-11-16T17:04:57.406Z,99326.20
2022-11-16T17:07:33.797Z,99322.20
2022-11-16T17:10:11.679Z,99322.80
2022-11-16T17:12:47.205Z,99315.40
2022-11-16T17:15:23.707Z,99313.20
2022-11-16T17:18:02.793Z,99309.80
2022-11-16T17:20:45.115Z,99309.60
2022-11-16T17:23:22.535Z,99303.60
2022-11-16T17:25:58.268Z,99302.20
2022-11-16T17:28:35.140Z,99309.00
2022-11-16T17:31:13.767Z,99314.40
2022-11-16T17:33:50.599Z,99322.00
2022-11-16T17:36:26.983Z,99320.40
2022-11-16T17:39:04.140Z,99320.00
2022-11-16T17:41:41.893Z,99323.20
2022-11-16T17:44:21.577Z,99323.60
2022-11-16T17:46:58.334Z,99327.40
2022-11-16T17:49:34.160Z,99329.60
2022-11-16T17:52:09.962Z,99328.60
2022-11-16T17:54:46.657Z,99328.00
2022-11-16T17:57:23.029Z,99329.00
2022-11-16T17:59:59.289Z,99329.00
2022-11-16T18:02:36.865Z,99332.60
2022-11-16T18:05:16.484Z,99335.40
2022-11-16T18:07:53.119Z,99341.40
2022-11-16T18:10:29.038Z,99344.40
2022-11-16T18:13:05.280Z,99341.40
2022-11-16T18:15:42.947Z,99339.40
2022-11-16T18:18:19.685Z,99345.20
2022-11-16T18:20:55.948Z,99343.60
2022-11-16T18:23:32.266Z,99345.80
2022-11-16T18:26:11.986Z,99348.00
2022-11-16T18:28:48.633Z,99348.00
2022-11-16T18:31:26.440Z,99348.60
2022-11-16T18:34:02.218Z,99345.40
2022-11-16T18:36:37.617Z,99351.60
2022-11-16T18:39:13.836Z,99356.60
2022-11-16T18:41:55.024Z,99354.00
2022-11-16T18:44:31.204Z,99347.00
2022-11-16T18:47:08.390Z,99344.20
2022-11-16T18:49:44.612Z,99345.40
2022-11-16T18:52:21.536Z,99346.20
2022-11-16T18:55:01.246Z,99349.00
2022-11-16T18:57:38.097Z,99350.60
2022-11-16T19:00:23.920Z,99347.80
2022-11-16T19:03:00.340Z,99351.20
2022-11-16T19:05:37.378Z,99356.60
2022-11-16T19:08:13.769Z,99361.00
2022-11-16T19:10:50.614Z,99362.80
2022-11-16T19:13:26.751Z,99365.80
2022-11-16T19:16:04.546Z,99364.80
2022-11-16T19:18:41.795Z,99366.80
2022-11-16T19:21:20.730Z,99372.80
2022-11-16T19:23:58.679Z,99376.20
2022-11-16T19:26:34.861Z,99377.00
2022-11-16T19:29:11.392Z,99382.80
2022-11-16T19:31:49.047Z,99392.80
2022-11-16T19:34:27.789Z,99396.20
2022-11-16T19:37:08.939Z,99394.20
2022-11-16T19:39:45.025Z,99393.20
2022-11-16T19:42:21.370Z,99391.00
2022-11-16T19:44:57.967Z,99397.60
2022-11-16T19:47:34.304Z,99395.20
2022-11-16T19:50:14.332Z,99386.40
2022-11-16T19:52:50.919Z,99384.80
2022-11-16T19:55:27.228Z,99383.20
2022-11-16T19:58:02.861Z,99380.60
2022-11-16T20:00:39.553Z,99382.20
2022-11-16T20:03:16.006Z,99382.20
2022-11-16T20:05:53.022Z,99382.00
2022-11-16T20:08:29.685Z,99379.40
2022-11-16T20:11:11.812Z,99383.60
2022-11-16T20:13:48.451Z,99393.00
2022-11-16T20:16:27.476Z,99392.60
2022-11-16T20:19:05.492Z,99390.40
2022-11-16T20:21:44.252Z,99392.40
2022-11-16T20:24:22.860Z,99389.00
2022-11-16T20:26:59.842Z,99371.20
2022-11-16T20:29:36.494Z,99365.80
2022-11-16T20:32:13.624Z,99355.20
2022-11-16T20:34:50.041Z,99346.60
2022-11-16T20:37:26.904Z,99337.80
2022-11-16T20:40:03.061Z,99335.40
2022-11-16T20:42:40.059Z,99333.00
2022-11-16T20:45:20.914Z,99329.20
2022-11-16T20:47:58.050Z,99326.80
2022-11-16T20:50:34.950Z,99325.60
2022-11-16T20:53:11.975Z,99329.60
2022-11-16T20:55:48.813Z,99331.20
2022-11-16T20:58:25.091Z,99329.80
2022-11-16T21:01:03.120Z,99330.80
2022-11-16T21:03:39.117Z,99339.20
2022-11-16T21:06:16.005Z,99339.40
2022-11-16T21:08:52.853Z,99344.00
2022-11-16T21:11:31.192Z,99343.40
2022-11-16T21:14:19.541Z,99346.40
2022-11-16T21:16:55.792Z,99360.40
2022-11-16T21:19:32.324Z,99364.40
2022-11-16T21:22:09.248Z,99366.40
2022-11-16T21:24:45.811Z,99359.00
2022-11-16T21:27:21.757Z,99363.20
2022-11-16T21:29:59.110Z,99365.80
2022-11-16T21:32:35.240Z,99353.20
2022-11-16T21:35:13.749Z,99350.40
2022-11-16T21:37:49.526Z,99360.20
2022-11-16T21:40:26.505Z,99367.00
2022-11-16T21:43:03.291Z,99372.40
2022-11-16T21:45:40.021Z,99373.20
2022-11-16T21:48:16.561Z,99370.80
2022-11-16T21:51:00.970Z,99381.20
2022-11-16T21:53:37.433Z,99384.00
2022-11-16T21:56:18.572Z,99380.80
2022-11-16T21:58:55.284Z,99379.20
2022-11-16T22:01:51.852Z,99387.40
2022-11-16T22:04:45.054Z,99395.80
2022-11-16T22:07:38.579Z,99403.40
2022-11-16T22:10:17.565Z,99408.00
2022-11-16T22:12:54.025Z,99414.00
2022-11-16T22:15:30.145Z,99417.80
2022-11-16T22:18:07.399Z,99407.20
2022-11-16T22:20:43.161Z,99410.40
2022-11-16T22:23:22.971Z,99413.20
2022-11-16T22:26:04.935Z,99410.80
2022-11-16T22:28:42.365Z,99403.60
2022-11-16T22:31:20.685Z,99388.00
2022-11-16T22:34:00.881Z,99384.40
2022-11-16T22:36:37.837Z,99381.80
2022-11-16T22:39:13.832Z,99374.20
2022-11-16T22:41:49.860Z,99372.80
2022-11-16T22:44:25.807Z,99379.60
2022-11-16T22:47:01.846Z,99383.60
2022-11-16T22:49:38.928Z,99381.00
2022-11-16T22:52:15.102Z,99379.20
2022-11-16T22:54:50.901Z,99377.80
2022-11-16T22:57:27.473Z,99374.80
2022-11-16T23:00:04.018Z,99364.80
2022-11-16T23:02:40.700Z,99354.60
2022-11-16T23:05:18.857Z,99356.40
2022-11-16T23:07:58.452Z,99353.60
2022-11-16T23:10:54.564Z,99355.60
2022-11-16T23:13:46.903Z,99350.20
2022-11-16T23:16:23.714Z,99341.00
2022-11-16T23:19:00.583Z,99332.00
2022-11-16T23:21:52.491Z,99325.00
2022-11-16T23:24:45.252Z,99322.00
2022-11-16T23:27:33.951Z,99322.20
2022-11-16T23:30:15.920Z,99313.80
2022-11-16T23:32:52.241Z,99312.40
2022-11-16T23:35:29.258Z,99313.40
2022-11-16T23:38:06.348Z,99317.60
2022-11-16T23:40:44.246Z,99318.40
2022-11-16T23:43:51.098Z,99323.80
2022-11-16T23:46:27.953Z,99321.40
2022-11-16T23:49:05.018Z,99323.40
2022-11-16T23:51:42.276Z,99329.40
2022-11-16T23:54:18.187Z,99333.40
2022-11-16T23:56:53.948Z,99339.20
2022-11-16T23:59:30.381Z,99345.00
